sensor_id;sensor_type;location;lat;lon;timestamp;P1;durP1;ratioP1;P2;durP2;ratioP2
69392;SDS011;56582;44.624;20.378;2023-09-18T00:00:43;12.70;;;9.02;;
69392;SDS011;56582;44.624;20.378;2023-09-18T00:03:11;14.93;;;9.20;;
69392;SDS011;56582;44.624;20.378;2023-09-18T00:05:37;13.05;;;9.27;;
69392;SDS011;56582;44.624;20.378;2023-09-18T00:08:02;14.57;;;9.47;;
69392;SDS011;56582;44.624;20.378;2023-09-18T00:10:28;14.23;;;9.87;;
69392;SDS011;56582;44.624;20.378;2023-09-18T00:12:55;14.57;;;9.63;;
69392;SDS011;56582;44.624;20.378;2023-09-18T00:15:21;14.60;;;9.07;;
69392;SDS011;56582;44.624;20.378;2023-09-18T00:17:46;15.27;;;10.07;;
69392;SDS011;56582;44.624;20.378;2023-09-18T00:20:12;12.90;;;8.68;;
69392;SDS011;56582;44.624;20.378;2023-09-18T00:22:38;14.73;;;9.77;;
69392;SDS011;56582;44.624;20.378;2023-09-18T00:25:04;15.88;;;10.00;;
69392;SDS011;56582;44.624;20.378;2023-09-18T00:27:30;14.05;;;9.48;;
69392;SDS011;56582;44.624;20.378;2023-09-18T00:29:55;14.10;;;9.60;;
69392;SDS011;56582;44.624;20.378;2023-09-18T00:32:21;13.80;;;9.20;;
69392;SDS011;56582;44.624;20.378;2023-09-18T00:34:46;13.80;;;9.10;;
69392;SDS011;56582;44.624;20.378;2023-09-18T00:37:12;13.17;;;9.13;;
69392;SDS011;56582;44.624;20.378;2023-09-18T00:39:38;13.87;;;9.70;;
69392;SDS011;56582;44.624;20.378;2023-09-18T00:42:04;13.35;;;9.27;;
69392;SDS011;56582;44.624;20.378;2023-09-18T00:44:29;15.25;;;9.95;;
69392;SDS011;56582;44.624;20.378;2023-09-18T00:46:55;14.30;;;9.37;;
69392;SDS011;56582;44.624;20.378;2023-09-18T00:49:21;14.40;;;10.00;;
69392;SDS011;56582;44.624;20.378;2023-09-18T00:51:47;16.13;;;10.07;;
69392;SDS011;56582;44.624;20.378;2023-09-18T00:54:14;15.77;;;10.68;;
69392;SDS011;56582;44.624;20.378;2023-09-18T00:56:43;16.92;;;10.65;;
69392;SDS011;56582;44.624;20.378;2023-09-18T00:59:09;15.27;;;9.68;;
69392;SDS011;56582;44.624;20.378;2023-09-18T01:01:36;14.67;;;8.97;;
69392;SDS011;56582;44.624;20.378;2023-09-18T01:04:03;13.38;;;9.45;;
69392;SDS011;56582;44.624;20.378;2023-09-18T01:06:29;16.85;;;9.27;;
69392;SDS011;56582;44.624;20.378;2023-09-18T01:08:55;13.02;;;9.52;;
69392;SDS011;56582;44.624;20.378;2023-09-18T01:16:50;15.25;;;9.57;;
69392;SDS011;56582;44.624;20.378;2023-09-18T01:19:34;14.27;;;9.70;;
69392;SDS011;56582;44.624;20.378;2023-09-18T01:22:01;13.13;;;9.45;;
69392;SDS011;56582;44.624;20.378;2023-09-18T01:24:27;13.97;;;9.00;;
69392;SDS011;56582;44.624;20.378;2023-09-18T01:26:52;14.03;;;9.43;;
69392;SDS011;56582;44.624;20.378;2023-09-18T01:29:18;15.15;;;9.80;;
69392;SDS011;56582;44.624;20.378;2023-09-18T01:31:44;12.63;;;9.47;;
69392;SDS011;56582;44.624;20.378;2023-09-18T01:34:13;14.48;;;9.73;;
69392;SDS011;56582;44.624;20.378;2023-09-18T01:36:42;13.30;;;9.35;;
69392;SDS011;56582;44.624;20.378;2023-09-18T01:39:10;14.82;;;9.23;;
69392;SDS011;56582;44.624;20.378;2023-09-18T01:41:36;14.35;;;10.00;;
69392;SDS011;56582;44.624;20.378;2023-09-18T01:44:03;16.13;;;9.80;;
69392;SDS011;56582;44.624;20.378;2023-09-18T01:46:29;14.93;;;9.52;;
69392;SDS011;56582;44.624;20.378;2023-09-18T01:48:57;15.23;;;10.40;;
69392;SDS011;56582;44.624;20.378;2023-09-18T01:51:24;15.43;;;9.60;;
69392;SDS011;56582;44.624;20.378;2023-09-18T01:53:49;16.13;;;9.87;;
69392;SDS011;56582;44.624;20.378;2023-09-18T01:56:15;15.13;;;9.45;;
69392;SDS011;56582;44.624;20.378;2023-09-18T01:58:41;13.80;;;10.00;;
69392;SDS011;56582;44.624;20.378;2023-09-18T02:01:06;14.55;;;9.25;;
69392;SDS011;56582;44.624;20.378;2023-09-18T02:03:32;15.60;;;9.20;;
69392;SDS011;56582;44.624;20.378;2023-09-18T02:05:57;14.97;;;9.53;;
69392;SDS011;56582;44.624;20.378;2023-09-18T02:08:23;12.67;;;8.33;;
69392;SDS011;56582;44.624;20.378;2023-09-18T02:10:48;14.50;;;8.88;;
69392;SDS011;56582;44.624;20.378;2023-09-18T02:13:13;18.30;;;8.87;;
69392;SDS011;56582;44.624;20.378;2023-09-18T02:15:39;13.73;;;9.03;;
69392;SDS011;56582;44.624;20.378;2023-09-18T02:18:05;14.45;;;9.05;;
69392;SDS011;56582;44.624;20.378;2023-09-18T02:20:31;14.40;;;9.53;;
69392;SDS011;56582;44.624;20.378;2023-09-18T02:22:56;15.77;;;9.73;;
69392;SDS011;56582;44.624;20.378;2023-09-18T02:25:22;13.50;;;9.40;;
69392;SDS011;56582;44.624;20.378;2023-09-18T02:27:47;16.53;;;9.60;;
69392;SDS011;56582;44.624;20.378;2023-09-18T02:30:14;14.10;;;9.70;;
69392;SDS011;56582;44.624;20.378;2023-09-18T02:32:40;16.07;;;8.70;;
69392;SDS011;56582;44.624;20.378;2023-09-18T02:35:07;16.13;;;9.73;;
69392;SDS011;56582;44.624;20.378;2023-09-18T02:37:32;18.27;;;10.23;;
69392;SDS011;56582;44.624;20.378;2023-09-18T02:39:58;15.18;;;9.48;;
69392;SDS011;56582;44.624;20.378;2023-09-18T02:42:24;14.33;;;9.53;;
69392;SDS011;56582;44.624;20.378;2023-09-18T02:44:49;15.53;;;9.87;;
69392;SDS011;56582;44.624;20.378;2023-09-18T02:47:14;12.20;;;7.83;;
69392;SDS011;56582;44.624;20.378;2023-09-18T02:49:40;14.00;;;9.07;;
69392;SDS011;56582;44.624;20.378;2023-09-18T02:52:05;15.67;;;9.17;;
69392;SDS011;56582;44.624;20.378;2023-09-18T02:54:31;13.13;;;8.93;;
69392;SDS011;56582;44.624;20.378;2023-09-18T02:56:56;12.60;;;9.23;;
69392;SDS011;56582;44.624;20.378;2023-09-18T02:59:22;13.27;;;8.40;;
69392;SDS011;56582;44.624;20.378;2023-09-18T03:01:47;13.53;;;7.53;;
69392;SDS011;56582;44.624;20.378;2023-09-18T03:04:14;15.88;;;9.68;;
69392;SDS011;56582;44.624;20.378;2023-09-18T03:06:39;14.73;;;9.20;;
69392;SDS011;56582;44.624;20.378;2023-09-18T03:09:06;14.43;;;9.15;;
69392;SDS011;56582;44.624;20.378;2023-09-18T03:11:31;15.77;;;8.63;;
69392;SDS011;56582;44.624;20.378;2023-09-18T03:13:57;14.40;;;9.90;;
69392;SDS011;56582;44.624;20.378;2023-09-18T03:16:22;13.80;;;9.52;;
69392;SDS011;56582;44.624;20.378;2023-09-18T03:18:48;15.53;;;9.60;;
69392;SDS011;56582;44.624;20.378;2023-09-18T03:21:14;12.00;;;8.63;;
69392;SDS011;56582;44.624;20.378;2023-09-18T03:23:39;14.93;;;9.83;;
69392;SDS011;56582;44.624;20.378;2023-09-18T03:26:05;16.77;;;9.50;;
69392;SDS011;56582;44.624;20.378;2023-09-18T03:28:30;14.17;;;8.73;;
69392;SDS011;56582;44.624;20.378;2023-09-18T03:30:57;15.98;;;10.80;;
69392;SDS011;56582;44.624;20.378;2023-09-18T03:33:23;13.88;;;8.90;;
69392;SDS011;56582;44.624;20.378;2023-09-18T03:35:49;17.57;;;10.03;;
69392;SDS011;56582;44.624;20.378;2023-09-18T03:38:16;20.27;;;9.88;;
69392;SDS011;56582;44.624;20.378;2023-09-18T03:40:41;16.17;;;9.93;;
69392;SDS011;56582;44.624;20.378;2023-09-18T03:43:07;14.93;;;10.20;;
69392;SDS011;56582;44.624;20.378;2023-09-18T03:45:33;14.85;;;9.32;;
69392;SDS011;56582;44.624;20.378;2023-09-18T03:47:58;15.23;;;10.13;;
69392;SDS011;56582;44.624;20.378;2023-09-18T03:50:24;15.90;;;9.57;;
69392;SDS011;56582;44.624;20.378;2023-09-18T03:52:49;15.07;;;9.73;;
69392;SDS011;56582;44.624;20.378;2023-09-18T03:55:14;16.00;;;9.83;;
69392;SDS011;56582;44.624;20.378;2023-09-18T03:57:41;14.35;;;9.52;;
69392;SDS011;56582;44.624;20.378;2023-09-18T04:00:07;13.63;;;8.90;;
69392;SDS011;56582;44.624;20.378;2023-09-18T04:02:33;14.13;;;9.27;;
69392;SDS011;56582;44.624;20.378;2023-09-18T04:04:59;15.57;;;9.93;;
69392;SDS011;56582;44.624;20.378;2023-09-18T04:07:24;15.67;;;10.83;;
69392;SDS011;56582;44.624;20.378;2023-09-18T04:09:50;15.15;;;10.02;;
69392;SDS011;56582;44.624;20.378;2023-09-18T04:12:15;14.50;;;9.60;;
69392;SDS011;56582;44.624;20.378;2023-09-18T04:14:41;15.63;;;9.87;;
69392;SDS011;56582;44.624;20.378;2023-09-18T04:17:06;15.43;;;10.17;;
69392;SDS011;56582;44.624;20.378;2023-09-18T04:19:32;14.30;;;9.85;;
69392;SDS011;56582;44.624;20.378;2023-09-18T04:21:57;15.97;;;10.53;;
69392;SDS011;56582;44.624;20.378;2023-09-18T04:24:23;14.53;;;9.07;;
69392;SDS011;56582;44.624;20.378;2023-09-18T04:26:48;15.95;;;10.77;;
69392;SDS011;56582;44.624;20.378;2023-09-18T04:29:16;14.82;;;9.82;;
69392;SDS011;56582;44.624;20.378;2023-09-18T04:31:41;17.48;;;11.05;;
69392;SDS011;56582;44.624;20.378;2023-09-18T04:34:07;14.60;;;9.23;;
69392;SDS011;56582;44.624;20.378;2023-09-18T04:36:32;17.07;;;10.37;;
69392;SDS011;56582;44.624;20.378;2023-09-18T04:38:58;15.33;;;10.00;;
69392;SDS011;56582;44.624;20.378;2023-09-18T04:41:23;15.17;;;10.53;;
69392;SDS011;56582;44.624;20.378;2023-09-18T04:43:49;13.53;;;9.60;;
69392;SDS011;56582;44.624;20.378;2023-09-18T04:46:16;15.55;;;9.80;;
69392;SDS011;56582;44.624;20.378;2023-09-18T04:48:41;15.57;;;9.53;;
69392;SDS011;56582;44.624;20.378;2023-09-18T04:51:07;16.95;;;10.93;;
69392;SDS011;56582;44.624;20.378;2023-09-18T04:53:32;17.33;;;9.80;;
69392;SDS011;56582;44.624;20.378;2023-09-18T04:55:58;14.87;;;10.17;;
69392;SDS011;56582;44.624;20.378;2023-09-18T04:58:24;15.35;;;10.27;;
69392;SDS011;56582;44.624;20.378;2023-09-18T05:00:56;15.27;;;9.83;;
69392;SDS011;56582;44.624;20.378;2023-09-18T05:03:22;17.58;;;10.70;;
69392;SDS011;56582;44.624;20.378;2023-09-18T05:05:48;14.35;;;10.05;;
69392;SDS011;56582;44.624;20.378;2023-09-18T05:08:14;14.40;;;9.38;;
69392;SDS011;56582;44.624;20.378;2023-09-18T05:10:40;14.50;;;9.27;;
69392;SDS011;56582;44.624;20.378;2023-09-18T05:13:05;15.63;;;10.27;;
69392;SDS011;56582;44.624;20.378;2023-09-18T05:15:32;14.95;;;9.70;;
69392;SDS011;56582;44.624;20.378;2023-09-18T05:17:58;14.40;;;9.57;;
69392;SDS011;56582;44.624;20.378;2023-09-18T05:20:25;14.15;;;10.07;;
69392;SDS011;56582;44.624;20.378;2023-09-18T05:22:53;16.13;;;10.55;;
69392;SDS011;56582;44.624;20.378;2023-09-18T05:25:19;16.77;;;10.02;;
69392;SDS011;56582;44.624;20.378;2023-09-18T05:27:49;14.25;;;10.00;;
69392;SDS011;56582;44.624;20.378;2023-09-18T05:30:21;15.53;;;10.10;;
69392;SDS011;56582;44.624;20.378;2023-09-18T05:32:50;14.50;;;9.02;;
69392;SDS011;56582;44.624;20.378;2023-09-18T05:35:16;13.80;;;9.52;;
69392;SDS011;56582;44.624;20.378;2023-09-18T05:37:41;14.25;;;9.88;;
69392;SDS011;56582;44.624;20.378;2023-09-18T05:40:08;14.07;;;8.90;;
69392;SDS011;56582;44.624;20.378;2023-09-18T05:42:35;15.43;;;10.63;;
69392;SDS011;56582;44.624;20.378;2023-09-18T05:45:02;13.75;;;8.90;;
69392;SDS011;56582;44.624;20.378;2023-09-18T05:47:29;16.67;;;9.38;;
69392;SDS011;56582;44.624;20.378;2023-09-18T05:49:57;14.15;;;9.95;;
69392;SDS011;56582;44.624;20.378;2023-09-18T05:52:22;17.07;;;10.10;;
69392;SDS011;56582;44.624;20.378;2023-09-18T05:54:49;14.27;;;9.60;;
69392;SDS011;56582;44.624;20.378;2023-09-18T05:57:14;12.57;;;8.27;;
69392;SDS011;56582;44.624;20.378;2023-09-18T05:59:41;14.73;;;9.43;;
69392;SDS011;56582;44.624;20.378;2023-09-18T06:02:09;14.57;;;9.80;;
69392;SDS011;56582;44.624;20.378;2023-09-18T06:04:34;15.73;;;9.90;;
69392;SDS011;56582;44.624;20.378;2023-09-18T06:07:02;14.70;;;9.57;;
69392;SDS011;56582;44.624;20.378;2023-09-18T06:09:28;15.07;;;9.90;;
69392;SDS011;56582;44.624;20.378;2023-09-18T06:11:54;13.77;;;9.17;;
69392;SDS011;56582;44.624;20.378;2023-09-18T06:14:19;13.98;;;9.20;;
69392;SDS011;56582;44.624;20.378;2023-09-18T06:16:44;13.90;;;9.67;;
69392;SDS011;56582;44.624;20.378;2023-09-18T06:19:10;12.20;;;8.77;;
69392;SDS011;56582;44.624;20.378;2023-09-18T06:21:35;13.90;;;9.23;;
69392;SDS011;56582;44.624;20.378;2023-09-18T06:24:01;13.13;;;9.70;;
69392;SDS011;56582;44.624;20.378;2023-09-18T06:26:26;15.53;;;9.30;;
69392;SDS011;56582;44.624;20.378;2023-09-18T06:28:52;13.43;;;9.45;;
69392;SDS011;56582;44.624;20.378;2023-09-18T06:31:20;12.63;;;8.77;;
69392;SDS011;56582;44.624;20.378;2023-09-18T06:33:45;14.30;;;9.10;;
69392;SDS011;56582;44.624;20.378;2023-09-18T06:36:11;12.52;;;9.05;;
69392;SDS011;56582;44.624;20.378;2023-09-18T06:38:36;15.20;;;9.07;;
69392;SDS011;56582;44.624;20.378;2023-09-18T06:41:02;14.70;;;8.83;;
69392;SDS011;56582;44.624;20.378;2023-09-18T06:43:28;14.32;;;9.50;;
69392;SDS011;56582;44.624;20.378;2023-09-18T06:45:53;15.53;;;9.27;;
69392;SDS011;56582;44.624;20.378;2023-09-18T06:48:23;12.47;;;8.40;;
69392;SDS011;56582;44.624;20.378;2023-09-18T06:50:49;13.40;;;8.95;;
69392;SDS011;56582;44.624;20.378;2023-09-18T06:53:14;14.90;;;9.13;;
69392;SDS011;56582;44.624;20.378;2023-09-18T06:55:40;12.90;;;8.98;;
69392;SDS011;56582;44.624;20.378;2023-09-18T06:58:06;11.40;;;8.43;;
69392;SDS011;56582;44.624;20.378;2023-09-18T07:00:31;13.97;;;8.40;;
69392;SDS011;56582;44.624;20.378;2023-09-18T07:02:57;12.97;;;9.07;;
69392;SDS011;56582;44.624;20.378;2023-09-18T07:05:22;13.17;;;9.30;;
69392;SDS011;56582;44.624;20.378;2023-09-18T07:07:48;13.55;;;8.95;;
69392;SDS011;56582;44.624;20.378;2023-09-18T07:10:13;12.00;;;8.10;;
69392;SDS011;56582;44.624;20.378;2023-09-18T07:12:39;13.67;;;8.70;;
69392;SDS011;56582;44.624;20.378;2023-09-18T07:15:05;13.07;;;8.05;;
69392;SDS011;56582;44.624;20.378;2023-09-18T07:17:31;11.70;;;8.07;;
69392;SDS011;56582;44.624;20.378;2023-09-18T07:19:57;14.73;;;8.87;;
69392;SDS011;56582;44.624;20.378;2023-09-18T07:22:24;12.13;;;8.27;;
69392;SDS011;56582;44.624;20.378;2023-09-18T07:24:49;12.10;;;8.30;;
69392;SDS011;56582;44.624;20.378;2023-09-18T07:27:15;14.40;;;8.70;;
69392;SDS011;56582;44.624;20.378;2023-09-18T07:29:40;12.73;;;8.80;;
69392;SDS011;56582;44.624;20.378;2023-09-18T07:32:06;12.82;;;8.90;;
69392;SDS011;56582;44.624;20.378;2023-09-18T07:34:32;11.13;;;8.50;;
69392;SDS011;56582;44.624;20.378;2023-09-18T07:36:57;12.93;;;8.50;;
69392;SDS011;56582;44.624;20.378;2023-09-18T07:39:23;14.23;;;8.23;;
69392;SDS011;56582;44.624;20.378;2023-09-18T07:41:49;11.77;;;8.40;;
69392;SDS011;56582;44.624;20.378;2023-09-18T07:44:21;12.02;;;8.40;;
69392;SDS011;56582;44.624;20.378;2023-09-18T07:46:47;13.13;;;8.05;;
69392;SDS011;56582;44.624;20.378;2023-09-18T07:49:13;13.27;;;8.60;;
69392;SDS011;56582;44.624;20.378;2023-09-18T07:51:39;13.48;;;8.95;;
69392;SDS011;56582;44.624;20.378;2023-09-18T07:54:06;11.68;;;8.82;;
69392;SDS011;56582;44.624;20.378;2023-09-18T07:56:32;12.43;;;8.48;;
69392;SDS011;56582;44.624;20.378;2023-09-18T07:58:59;12.33;;;8.40;;
69392;SDS011;56582;44.624;20.378;2023-09-18T08:01:25;11.45;;;8.00;;
69392;SDS011;56582;44.624;20.378;2023-09-18T08:03:51;14.35;;;9.48;;
69392;SDS011;56582;44.624;20.378;2023-09-18T08:06:16;12.70;;;8.33;;
69392;SDS011;56582;44.624;20.378;2023-09-18T08:08:44;11.35;;;8.15;;
69392;SDS011;56582;44.624;20.378;2023-09-18T08:11:09;13.73;;;8.67;;
69392;SDS011;56582;44.624;20.378;2023-09-18T08:13:35;13.07;;;8.68;;
69392;SDS011;56582;44.624;20.378;2023-09-18T08:16:01;11.03;;;8.33;;
69392;SDS011;56582;44.624;20.378;2023-09-18T08:18:29;12.90;;;8.45;;
69392;SDS011;56582;44.624;20.378;2023-09-18T08:20:54;11.85;;;8.43;;
69392;SDS011;56582;44.624;20.378;2023-09-18T08:23:23;12.38;;;8.10;;
69392;SDS011;56582;44.624;20.378;2023-09-18T08:25:51;12.03;;;8.53;;
69392;SDS011;56582;44.624;20.378;2023-09-18T08:28:20;13.27;;;8.82;;
69392;SDS011;56582;44.624;20.378;2023-09-18T08:30:46;12.40;;;8.98;;
69392;SDS011;56582;44.624;20.378;2023-09-18T08:33:15;12.87;;;8.90;;
69392;SDS011;56582;44.624;20.378;2023-09-18T08:35:40;15.43;;;9.30;;
69392;SDS011;56582;44.624;20.378;2023-09-18T08:38:06;12.90;;;8.82;;
69392;SDS011;56582;44.624;20.378;2023-09-18T08:40:33;13.20;;;9.53;;
69392;SDS011;56582;44.624;20.378;2023-09-18T08:43:00;14.93;;;9.23;;
69392;SDS011;56582;44.624;20.378;2023-09-18T08:45:36;14.23;;;9.60;;
69392;SDS011;56582;44.624;20.378;2023-09-18T08:48:07;12.32;;;8.60;;
69392;SDS011;56582;44.624;20.378;2023-09-18T08:50:33;13.57;;;9.25;;
69392;SDS011;56582;44.624;20.378;2023-09-18T08:52:59;11.68;;;8.25;;
69392;SDS011;56582;44.624;20.378;2023-09-18T08:55:25;13.20;;;9.27;;
69392;SDS011;56582;44.624;20.378;2023-09-18T08:57:50;12.43;;;9.27;;
69392;SDS011;56582;44.624;20.378;2023-09-18T09:00:18;14.30;;;9.70;;
69392;SDS011;56582;44.624;20.378;2023-09-18T09:02:44;12.63;;;8.55;;
69392;SDS011;56582;44.624;20.378;2023-09-18T09:05:10;13.70;;;8.77;;
69392;SDS011;56582;44.624;20.378;2023-09-18T09:07:36;11.80;;;9.03;;
69392;SDS011;56582;44.624;20.378;2023-09-18T09:10:01;13.02;;;9.95;;
69392;SDS011;56582;44.624;20.378;2023-09-18T09:12:47;14.43;;;8.50;;
69392;SDS011;56582;44.624;20.378;2023-09-18T09:15:14;11.75;;;8.80;;
69392;SDS011;56582;44.624;20.378;2023-09-18T09:17:39;11.13;;;8.73;;
69392;SDS011;56582;44.624;20.378;2023-09-18T09:20:09;12.70;;;9.32;;
69392;SDS011;56582;44.624;20.378;2023-09-18T09:22:36;12.77;;;9.10;;
69392;SDS011;56582;44.624;20.378;2023-09-18T09:25:03;13.60;;;9.45;;
69392;SDS011;56582;44.624;20.378;2023-09-18T09:27:29;13.05;;;8.63;;
69392;SDS011;56582;44.624;20.378;2023-09-18T09:30:06;13.02;;;9.10;;
69392;SDS011;56582;44.624;20.378;2023-09-18T09:32:32;13.93;;;9.00;;
69392;SDS011;56582;44.624;20.378;2023-09-18T09:34:58;14.55;;;9.38;;
69392;SDS011;56582;44.624;20.378;2023-09-18T09:37:31;11.85;;;9.25;;
69392;SDS011;56582;44.624;20.378;2023-09-18T09:39:56;13.27;;;9.23;;
69392;SDS011;56582;44.624;20.378;2023-09-18T09:42:37;13.98;;;8.70;;
69392;SDS011;56582;44.624;20.378;2023-09-18T09:45:04;13.83;;;9.10;;
69392;SDS011;56582;44.624;20.378;2023-09-18T09:47:37;12.90;;;9.20;;
69392;SDS011;56582;44.624;20.378;2023-09-18T09:50:09;14.82;;;9.45;;
69392;SDS011;56582;44.624;20.378;2023-09-18T09:52:45;13.52;;;9.20;;
69392;SDS011;56582;44.624;20.378;2023-09-18T09:55:32;11.65;;;8.85;;
69392;SDS011;56582;44.624;20.378;2023-09-18T09:58:00;13.37;;;8.97;;
69392;SDS011;56582;44.624;20.378;2023-09-18T10:00:33;17.83;;;8.82;;
69392;SDS011;56582;44.624;20.378;2023-09-18T10:03:08;12.50;;;8.95;;
69392;SDS011;56582;44.624;20.378;2023-09-18T10:05:36;16.65;;;10.40;;
69392;SDS011;56582;44.624;20.378;2023-09-18T10:08:06;13.63;;;8.77;;
69392;SDS011;56582;44.624;20.378;2023-09-18T10:10:53;10.97;;;8.93;;
69392;SDS011;56582;44.624;20.378;2023-09-18T10:13:36;13.05;;;9.38;;
69392;SDS011;56582;44.624;20.378;2023-09-18T10:16:11;12.85;;;9.13;;
69392;SDS011;56582;44.624;20.378;2023-09-18T10:18:43;14.50;;;9.45;;
69392;SDS011;56582;44.624;20.378;2023-09-18T10:26:50;11.80;;;8.60;;
69392;SDS011;56582;44.624;20.378;2023-09-18T10:29:20;11.88;;;9.07;;
69392;SDS011;56582;44.624;20.378;2023-09-18T10:31:48;12.88;;;9.00;;
69392;SDS011;56582;44.624;20.378;2023-09-18T10:34:16;11.43;;;9.10;;
69392;SDS011;56582;44.624;20.378;2023-09-18T10:36:43;11.23;;;8.60;;
69392;SDS011;56582;44.624;20.378;2023-09-18T10:39:13;12.10;;;8.18;;
69392;SDS011;56582;44.624;20.378;2023-09-18T10:41:45;12.00;;;8.07;;
69392;SDS011;56582;44.624;20.378;2023-09-18T10:44:12;13.27;;;8.07;;
69392;SDS011;56582;44.624;20.378;2023-09-18T10:46:40;12.00;;;8.23;;
69392;SDS011;56582;44.624;20.378;2023-09-18T10:49:06;10.70;;;8.40;;
69392;SDS011;56582;44.624;20.378;2023-09-18T10:51:32;12.90;;;8.37;;
69392;SDS011;56582;44.624;20.378;2023-09-18T10:53:59;13.33;;;8.80;;
69392;SDS011;56582;44.624;20.378;2023-09-18T10:56:25;11.45;;;8.45;;
69392;SDS011;56582;44.624;20.378;2023-09-18T10:58:58;12.73;;;7.88;;
69392;SDS011;56582;44.624;20.378;2023-09-18T11:01:25;11.90;;;8.55;;
69392;SDS011;56582;44.624;20.378;2023-09-18T11:03:52;11.43;;;8.55;;
69392;SDS011;56582;44.624;20.378;2023-09-18T11:06:22;12.80;;;8.33;;
69392;SDS011;56582;44.624;20.378;2023-09-18T11:08:51;10.23;;;7.65;;
69392;SDS011;56582;44.624;20.378;2023-09-18T11:11:26;12.15;;;7.40;;
69392;SDS011;56582;44.624;20.378;2023-09-18T11:13:55;11.00;;;8.60;;
69392;SDS011;56582;44.624;20.378;2023-09-18T11:21:28;10.52;;;7.97;;
69392;SDS011;56582;44.624;20.378;2023-09-18T11:24:02;12.60;;;8.30;;
69392;SDS011;56582;44.624;20.378;2023-09-18T11:26:29;12.38;;;7.40;;
69392;SDS011;56582;44.624;20.378;2023-09-18T11:28:58;12.82;;;7.90;;
69392;SDS011;56582;44.624;20.378;2023-09-18T11:34:28;12.80;;;8.05;;
69392;SDS011;56582;44.624;20.378;2023-09-18T11:37:00;12.48;;;7.43;;
69392;SDS011;56582;44.624;20.378;2023-09-18T11:44:42;14.77;;;7.63;;
69392;SDS011;56582;44.624;20.378;2023-09-18T11:47:11;12.70;;;7.93;;
69392;SDS011;56582;44.624;20.378;2023-09-18T11:49:45;12.50;;;7.43;;
69392;SDS011;56582;44.624;20.378;2023-09-18T11:52:15;11.00;;;7.38;;
69392;SDS011;56582;44.624;20.378;2023-09-18T11:54:42;11.07;;;7.70;;
69392;SDS011;56582;44.624;20.378;2023-09-18T11:57:08;11.07;;;7.90;;
69392;SDS011;56582;44.624;20.378;2023-09-18T11:59:37;10.25;;;7.93;;
69392;SDS011;56582;44.624;20.378;2023-09-18T12:02:06;11.40;;;7.95;;
69392;SDS011;56582;44.624;20.378;2023-09-18T12:04:32;11.43;;;7.90;;
69392;SDS011;56582;44.624;20.378;2023-09-18T12:06:58;12.73;;;8.95;;
69392;SDS011;56582;44.624;20.378;2023-09-18T12:09:31;10.70;;;7.78;;
69392;SDS011;56582;44.624;20.378;2023-09-18T12:12:00;12.33;;;7.83;;
69392;SDS011;56582;44.624;20.378;2023-09-18T12:14:30;11.38;;;8.30;;
69392;SDS011;56582;44.624;20.378;2023-09-18T12:16:57;13.50;;;8.45;;
69392;SDS011;56582;44.624;20.378;2023-09-18T12:19:25;11.38;;;7.88;;
69392;SDS011;56582;44.624;20.378;2023-09-18T12:21:50;12.02;;;7.82;;
69392;SDS011;56582;44.624;20.378;2023-09-18T12:24:22;11.63;;;8.20;;
69392;SDS011;56582;44.624;20.378;2023-09-18T12:26:49;13.07;;;8.50;;
69392;SDS011;56582;44.624;20.378;2023-09-18T12:29:16;10.35;;;7.95;;
69392;SDS011;56582;44.624;20.378;2023-09-18T12:31:41;11.27;;;7.93;;
69392;SDS011;56582;44.624;20.378;2023-09-18T12:34:14;12.32;;;8.02;;
69392;SDS011;56582;44.624;20.378;2023-09-18T12:36:43;13.85;;;8.95;;
69392;SDS011;56582;44.624;20.378;2023-09-18T12:39:12;13.13;;;7.80;;
69392;SDS011;56582;44.624;20.378;2023-09-18T12:41:41;11.45;;;8.05;;
69392;SDS011;56582;44.624;20.378;2023-09-18T12:44:08;13.48;;;8.23;;
69392;SDS011;56582;44.624;20.378;2023-09-18T12:46:35;14.02;;;8.48;;
69392;SDS011;56582;44.624;20.378;2023-09-18T12:49:20;11.82;;;8.25;;
69392;SDS011;56582;44.624;20.378;2023-09-18T12:57:04;11.40;;;8.10;;
69392;SDS011;56582;44.624;20.378;2023-09-18T12:59:31;11.98;;;8.00;;
69392;SDS011;56582;44.624;20.378;2023-09-18T13:01:58;11.65;;;8.10;;
69392;SDS011;56582;44.624;20.378;2023-09-18T13:04:24;10.63;;;7.97;;
69392;SDS011;56582;44.624;20.378;2023-09-18T13:09:36;10.13;;;7.65;;
69392;SDS011;56582;44.624;20.378;2023-09-18T13:12:02;11.25;;;8.10;;
69392;SDS011;56582;44.624;20.378;2023-09-18T13:14:28;12.97;;;8.40;;
69392;SDS011;56582;44.624;20.378;2023-09-18T13:17:03;11.25;;;7.65;;
69392;SDS011;56582;44.624;20.378;2023-09-18T13:19:29;12.82;;;8.35;;
69392;SDS011;56582;44.624;20.378;2023-09-18T13:21:55;11.97;;;7.87;;
69392;SDS011;56582;44.624;20.378;2023-09-18T13:24:24;10.63;;;8.17;;
69392;SDS011;56582;44.624;20.378;2023-09-18T13:26:52;11.57;;;8.18;;
69392;SDS011;56582;44.624;20.378;2023-09-18T13:29:18;11.60;;;8.80;;
69392;SDS011;56582;44.624;20.378;2023-09-18T13:31:44;13.67;;;9.23;;
69392;SDS011;56582;44.624;20.378;2023-09-18T13:34:09;11.60;;;8.13;;
69392;SDS011;56582;44.624;20.378;2023-09-18T13:36:36;12.70;;;9.25;;
69392;SDS011;56582;44.624;20.378;2023-09-18T13:39:02;11.55;;;8.25;;
69392;SDS011;56582;44.624;20.378;2023-09-18T13:41:28;13.87;;;8.30;;
69392;SDS011;56582;44.624;20.378;2023-09-18T13:43:54;13.30;;;8.77;;
69392;SDS011;56582;44.624;20.378;2023-09-18T13:46:20;14.05;;;8.65;;
69392;SDS011;56582;44.624;20.378;2023-09-18T13:48:46;11.60;;;8.38;;
69392;SDS011;56582;44.624;20.378;2023-09-18T13:51:13;12.83;;;8.27;;
69392;SDS011;56582;44.624;20.378;2023-09-18T13:53:39;13.48;;;8.20;;
69392;SDS011;56582;44.624;20.378;2023-09-18T13:56:06;11.00;;;7.65;;
69392;SDS011;56582;44.624;20.378;2023-09-18T13:58:31;13.60;;;8.37;;
69392;SDS011;56582;44.624;20.378;2023-09-18T14:00:57;14.03;;;8.00;;
69392;SDS011;56582;44.624;20.378;2023-09-18T14:03:23;14.23;;;8.37;;
69392;SDS011;56582;44.624;20.378;2023-09-18T14:05:49;12.20;;;8.15;;
69392;SDS011;56582;44.624;20.378;2023-09-18T14:08:15;12.32;;;7.90;;
69392;SDS011;56582;44.624;20.378;2023-09-18T14:10:42;12.00;;;7.93;;
69392;SDS011;56582;44.624;20.378;2023-09-18T14:13:09;13.10;;;7.97;;
69392;SDS011;56582;44.624;20.378;2023-09-18T14:15:34;12.43;;;8.23;;
69392;SDS011;56582;44.624;20.378;2023-09-18T14:18:00;12.07;;;8.43;;
69392;SDS011;56582;44.624;20.378;2023-09-18T14:20:25;13.90;;;8.20;;
69392;SDS011;56582;44.624;20.378;2023-09-18T14:22:51;11.10;;;8.33;;
69392;SDS011;56582;44.624;20.378;2023-09-18T14:25:16;12.70;;;8.47;;
69392;SDS011;56582;44.624;20.378;2023-09-18T14:27:42;10.52;;;8.13;;
69392;SDS011;56582;44.624;20.378;2023-09-18T14:30:08;11.00;;;8.20;;
69392;SDS011;56582;44.624;20.378;2023-09-18T14:32:34;11.63;;;8.10;;
69392;SDS011;56582;44.624;20.378;2023-09-18T14:35:01;13.18;;;8.35;;
69392;SDS011;56582;44.624;20.378;2023-09-18T14:37:28;11.68;;;7.93;;
69392;SDS011;56582;44.624;20.378;2023-09-18T14:39:54;12.50;;;8.33;;
69392;SDS011;56582;44.624;20.378;2023-09-18T14:42:19;14.00;;;8.57;;
69392;SDS011;56582;44.624;20.378;2023-09-18T14:44:45;12.70;;;8.67;;
69392;SDS011;56582;44.624;20.378;2023-09-18T14:47:11;10.43;;;7.63;;
69392;SDS011;56582;44.624;20.378;2023-09-18T14:49:37;12.43;;;7.40;;
69392;SDS011;56582;44.624;20.378;2023-09-18T14:52:04;13.60;;;7.70;;